createdAt,value
2022-12-11T00:01:12.387Z,81.69
2022-12-11T00:03:42.660Z,81.54
2022-12-11T00:06:16.181Z,81.67
2022-12-11T00:08:44.313Z,81.61
2022-12-11T00:11:16.605Z,81.82
2022-12-11T00:13:46.935Z,81.97
2022-12-11T00:16:15.122Z,82.04
2022-12-11T00:18:43.513Z,81.66
2022-12-11T00:21:14.578Z,81.72
2022-12-11T00:23:42.825Z,82.17
2022-12-11T00:26:14.680Z,82.04
2022-12-11T00:28:43.905Z,81.79
2022-12-11T00:31:15.641Z,81.85
2022-12-11T00:33:46.189Z,82.17
2022-12-11T00:36:21.694Z,82.13
2022-12-11T00:38:50.221Z,82.06
2022-12-11T00:41:18.201Z,81.84
2022-12-11T00:43:46.742Z,81.71
2022-12-11T00:46:15.137Z,81.63
2022-12-11T00:48:43.275Z,81.80
2022-12-11T00:51:11.144Z,82.03
2022-12-11T00:53:39.622Z,82.14
2022-12-11T00:56:16.178Z,81.84
2022-12-11T00:58:45.106Z,81.95
2022-12-11T01:01:40.507Z,81.67
2022-12-11T01:04:10.486Z,81.66
2022-12-11T01:06:43.862Z,81.62
2022-12-11T01:09:31.095Z,81.67
2022-12-11T01:12:00.411Z,81.48
2022-12-11T01:14:28.261Z,81.63
2022-12-11T01:16:56.067Z,81.64
2022-12-11T01:19:23.908Z,81.70
2022-12-11T01:21:52.567Z,81.73
2022-12-11T01:24:21.254Z,81.44
2022-12-11T01:26:51.531Z,81.72
2022-12-11T01:29:20.961Z,81.68
2022-12-11T01:31:49.254Z,81.91
2022-12-11T01:34:17.149Z,81.79
2022-12-11T01:36:47.526Z,82.07
2022-12-11T01:39:15.329Z,81.61
2022-12-11T01:41:43.360Z,81.90
2022-12-11T01:44:13.903Z,82.01
2022-12-11T01:46:43.029Z,82.16
2022-12-11T01:49:13.812Z,82.14
2022-12-11T01:51:53.182Z,82.25
2022-12-11T01:54:23.869Z,82.06
2022-12-11T01:56:56.012Z,82.18
2022-12-11T01:59:27.243Z,82.17
2022-12-11T02:02:03.731Z,81.92
2022-12-11T02:04:33.277Z,82.13
2022-12-11T02:07:01.115Z,81.94
2022-12-11T02:09:32.835Z,81.92
2022-12-11T02:12:18.611Z,81.92
2022-12-11T02:15:32.875Z,81.54
2022-12-11T02:18:15.005Z,81.72
2022-12-11T02:20:58.225Z,82.10
2022-12-11T02:23:50.844Z,82.03
2022-12-11T02:26:55.217Z,81.93
2022-12-11T02:30:00.979Z,82.19
2022-12-11T02:32:53.151Z,82.05
2022-12-11T02:35:38.172Z,82.36
2022-12-11T02:38:13.114Z,82.44
2022-12-11T02:40:43.884Z,82.67
2022-12-11T02:43:15.688Z,82.72
2022-12-11T02:45:47.036Z,82.60
2022-12-11T02:48:17.045Z,82.64
2022-12-11T02:50:48.902Z,82.52
2022-12-11T02:53:21.838Z,82.54
2022-12-11T02:55:54.774Z,82.53
2022-12-11T02:58:27.266Z,82.84
2022-12-11T03:00:55.812Z,82.74
2022-12-11T03:03:23.792Z,82.61
2022-12-11T03:05:51.596Z,82.72
2022-12-11T03:08:19.586Z,82.69
2022-12-11T03:10:47.311Z,82.64
2022-12-11T03:13:20.668Z,82.65
2022-12-11T03:16:25.490Z,82.66
2022-12-11T03:19:36.475Z,82.69
2022-12-11T03:22:17.491Z,82.89
2022-12-11T03:25:07.968Z,82.88
2022-12-11T03:27:57.067Z,82.78
2022-12-11T03:30:27.128Z,83.10
2022-12-11T03:33:10.805Z,83.30
2022-12-11T03:35:46.673Z,83.56
2022-12-11T03:38:21.835Z,83.59
2022-12-11T03:40:53.727Z,83.73
2022-12-11T03:43:22.884Z,83.65
2022-12-11T03:45:53.651Z,83.84
2022-12-11T03:48:22.878Z,84.05
2022-12-11T03:50:51.883Z,84.12
2022-12-11T03:53:20.679Z,84.42
2022-12-11T03:55:50.124Z,84.36
2022-12-11T03:58:17.996Z,84.47
2022-12-11T04:00:46.071Z,84.52
2022-12-11T04:03:14.361Z,84.45
2022-12-11T04:05:53.287Z,84.58
2022-12-11T04:08:23.069Z,84.47
2022-12-11T04:11:14.139Z,84.51
2022-12-11T04:13:42.222Z,84.44
2022-12-11T04:16:10.274Z,84.24
2022-12-11T04:18:56.802Z,84.15
2022-12-11T04:21:43.306Z,83.88
2022-12-11T04:24:17.253Z,83.89
2022-12-11T04:26:46.589Z,83.20
2022-12-11T04:29:15.177Z,83.22
2022-12-11T04:31:43.014Z,83.39
2022-12-11T04:34:10.942Z,83.02
2022-12-11T04:36:38.802Z,82.88
2022-12-11T04:39:06.646Z,82.83
2022-12-11T04:41:35.399Z,82.46
2022-12-11T04:44:03.158Z,82.46
2022-12-11T04:46:31.100Z,82.52
2022-12-11T04:49:00.276Z,82.60
2022-12-11T04:51:28.830Z,82.52
2022-12-11T04:53:58.149Z,82.19
2022-12-11T04:56:28.612Z,82.39
2022-12-11T04:58:56.315Z,82.22
2022-12-11T05:01:24.235Z,81.90
2022-12-11T05:03:52.436Z,82.01
2022-12-11T05:06:20.130Z,82.05
2022-12-11T05:08:48.026Z,82.21
2022-12-11T05:11:16.324Z,81.69
2022-12-11T05:13:45.301Z,81.58
2022-12-11T05:16:15.836Z,81.93
2022-12-11T05:18:44.020Z,81.96
2022-12-11T05:21:13.942Z,81.89
2022-12-11T05:23:42.362Z,81.92
2022-12-11T05:26:16.144Z,81.74
2022-12-11T05:28:44.821Z,81.75
2022-12-11T05:31:17.159Z,81.41
2022-12-11T05:33:46.360Z,81.02
2022-12-11T05:36:18.623Z,81.28
2022-12-11T05:38:47.115Z,81.33
2022-12-11T05:41:18.067Z,81.11
2022-12-11T05:43:46.070Z,81.33
2022-12-11T05:46:26.150Z,80.96
2022-12-11T05:49:00.349Z,80.92
2022-12-11T05:51:29.774Z,81.01
2022-12-11T05:53:58.125Z,80.95
2022-12-11T05:56:28.893Z,80.86
2022-12-11T05:58:58.557Z,80.99
2022-12-11T06:01:37.939Z,81.18
2022-12-11T06:04:08.371Z,81.19
2022-12-11T06:06:36.831Z,80.89
2022-12-11T06:09:05.360Z,81.22
2022-12-11T06:11:34.674Z,80.95
2022-12-11T06:14:03.522Z,81.05
2022-12-11T06:16:32.287Z,81.11
2022-12-11T06:19:00.404Z,81.08
2022-12-11T06:21:31.236Z,80.60
2022-12-11T06:24:02.475Z,80.35
2022-12-11T06:26:30.506Z,80.34
2022-12-11T06:28:58.429Z,80.68
2022-12-11T06:31:26.452Z,80.44
2022-12-11T06:33:55.109Z,80.37
2022-12-11T06:36:24.130Z,80.41
2022-12-11T06:38:52.737Z,80.41
2022-12-11T06:41:20.799Z,80.65
2022-12-11T06:43:48.567Z,80.05
2022-12-11T06:46:19.814Z,80.41
2022-12-11T06:48:48.727Z,80.14
2022-12-11T06:51:20.687Z,79.75
2022-12-11T06:53:52.966Z,80.12
2022-12-11T06:56:21.696Z,80.15
2022-12-11T06:58:49.746Z,80.30
2022-12-11T07:01:22.855Z,80.23
2022-12-11T07:03:53.590Z,79.97
2022-12-11T07:06:21.687Z,80.01
2022-12-11T07:08:49.671Z,80.04
2022-12-11T07:11:18.955Z,80.23
2022-12-11T07:13:46.872Z,80.04
2022-12-11T07:16:16.752Z,80.16
2022-12-11T07:18:48.390Z,80.11
2022-12-11T07:21:16.544Z,80.15
2022-12-11T07:23:44.608Z,80.12
2022-12-11T07:26:15.538Z,80.26
2022-12-11T07:28:44.223Z,80.23
2022-12-11T07:31:17.543Z,80.01
2022-12-11T07:33:45.671Z,79.92
2022-12-11T07:36:14.828Z,79.73
2022-12-11T07:38:42.756Z,79.70
2022-12-11T07:41:12.606Z,79.68
2022-12-11T07:43:41.256Z,79.88
2022-12-11T07:46:13.158Z,79.50
2022-12-11T07:48:43.606Z,79.56
2022-12-11T07:51:17.851Z,79.42
2022-12-11T07:53:47.775Z,79.05
2022-12-11T07:56:17.118Z,79.02
2022-12-11T07:58:45.141Z,78.86
2022-12-11T08:01:16.207Z,79.05
2022-12-11T08:03:44.385Z,79.17
2022-12-11T08:06:12.915Z,79.08
2022-12-11T08:08:42.068Z,78.98
2022-12-11T08:11:12.978Z,78.83
2022-12-11T08:13:41.698Z,78.93
2022-12-11T08:16:13.174Z,78.50
2022-12-11T08:18:42.504Z,78.21
2022-12-11T08:21:25.347Z,78.00
2022-12-11T08:23:54.438Z,77.72
2022-12-11T08:26:28.256Z,77.95
2022-12-11T08:28:57.032Z,78.18
2022-12-11T08:31:25.458Z,78.01
2022-12-11T08:33:55.785Z,77.90
2022-12-11T08:36:23.839Z,78.08
2022-12-11T08:38:52.133Z,78.08
2022-12-11T08:41:23.277Z,78.00
2022-12-11T08:43:55.227Z,78.02
2022-12-11T08:46:26.297Z,78.04
2022-12-11T08:48:55.456Z,77.86
2022-12-11T08:51:26.234Z,78.06
2022-12-11T08:53:56.221Z,78.03
2022-12-11T08:56:24.868Z,78.05
2022-12-11T08:58:53.470Z,78.07
2022-12-11T09:01:24.645Z,78.27
2022-12-11T09:03:54.974Z,77.59
2022-12-11T09:06:25.520Z,77.36
2022-12-11T09:08:54.049Z,77.02
2022-12-11T09:11:27.805Z,77.48
2022-12-11T09:13:56.506Z,77.34
2022-12-11T09:16:26.340Z,77.23
2022-12-11T09:18:56.578Z,76.99
2022-12-11T09:21:27.512Z,76.97
2022-12-11T09:23:57.323Z,77.06
2022-12-11T09:26:26.806Z,77.31
2022-12-11T09:28:54.949Z,77.49
2022-12-11T09:31:29.137Z,77.31
2022-12-11T09:33:59.637Z,77.02
2022-12-11T09:36:28.482Z,76.25
2022-12-11T09:38:56.288Z,76.01
2022-12-11T09:41:35.075Z,76.85
2022-12-11T09:44:31.477Z,76.90
2022-12-11T09:47:00.211Z,77.30
2022-12-11T09:49:37.708Z,77.34
2022-12-11T09:52:16.694Z,76.98
2022-12-11T09:54:50.222Z,77.00
2022-12-11T09:57:31.857Z,76.94
2022-12-11T10:00:15.533Z,76.63
2022-12-11T10:02:50.520Z,76.52
2022-12-11T10:05:32.390Z,76.39
2022-12-11T10:08:08.158Z,76.08
2022-12-11T10:10:41.762Z,76.02
2022-12-11T10:13:31.436Z,75.62
2022-12-11T10:16:02.361Z,75.54
2022-12-11T10:18:31.299Z,75.70
2022-12-11T10:21:02.451Z,75.96
2022-12-11T10:24:00.677Z,75.32
2022-12-11T10:26:29.658Z,75.15
2022-12-11T10:29:00.539Z,74.57
2022-12-11T10:31:35.394Z,74.57
2022-12-11T10:34:11.684Z,74.13
2022-12-11T10:36:42.244Z,73.50
2022-12-11T10:39:19.757Z,73.70
2022-12-11T10:41:50.011Z,73.43
2022-12-11T10:44:19.984Z,73.44
2022-12-11T10:47:18.543Z,73.39
2022-12-11T10:49:58.340Z,72.67
2022-12-11T10:52:42.739Z,72.86
2022-12-11T10:55:24.550Z,72.82
2022-12-11T10:57:59.603Z,72.82
2022-12-11T11:00:39.688Z,72.81
2022-12-11T11:03:54.474Z,72.97
2022-12-11T11:06:23.955Z,73.33
2022-12-11T11:08:53.223Z,72.85
2022-12-11T11:11:28.924Z,72.78
2022-12-11T11:14:15.665Z,72.06
2022-12-11T11:16:47.587Z,72.13
2022-12-11T11:19:29.324Z,72.56
2022-12-11T11:22:00.933Z,72.21
2022-12-11T11:25:01.463Z,72.24
2022-12-11T11:27:34.430Z,72.22
2022-12-11T11:30:06.534Z,72.22
2022-12-11T11:32:41.840Z,72.63
2022-12-11T11:35:12.648Z,72.89
2022-12-11T11:37:46.498Z,72.73
2022-12-11T11:40:14.751Z,71.94
2022-12-11T11:42:57.898Z,72.09
2022-12-11T11:45:32.030Z,72.11
2022-12-11T11:48:25.884Z,72.23
2022-12-11T11:50:54.356Z,71.93
2022-12-11T11:53:37.500Z,71.98
2022-12-11T11:56:28.186Z,72.32
2022-12-11T11:59:03.870Z,72.35
2022-12-11T12:01:32.118Z,72.37
2022-12-11T12:04:02.711Z,72.55
2022-12-11T12:06:50.893Z,72.76
2022-12-11T12:09:41.323Z,72.76
2022-12-11T12:12:39.736Z,73.21
2022-12-11T12:15:33.731Z,72.65
2022-12-11T12:18:48.066Z,72.41
2022-12-11T12:21:36.525Z,72.36
2022-12-11T12:24:29.630Z,72.66
2022-12-11T12:26:57.681Z,72.75
2022-12-11T12:29:25.447Z,72.81
2022-12-11T12:32:16.376Z,72.61
2022-12-11T12:35:15.528Z,72.84
2022-12-11T12:38:07.151Z,73.04
2022-12-11T12:41:08.691Z,73.38
2022-12-11T12:44:03.947Z,73.79
2022-12-11T12:46:43.757Z,73.70
2022-12-11T12:49:20.078Z,73.63
2022-12-11T12:51:47.950Z,73.70
2022-12-11T12:54:18.824Z,73.71
2022-12-11T12:56:48.523Z,73.71
2022-12-11T12:59:22.251Z,73.81
2022-12-11T13:01:55.302Z,73.93
2022-12-11T13:04:55.068Z,73.79
2022-12-11T13:07:32.959Z,73.26
2022-12-11T13:10:22.724Z,73.04
2022-12-11T13:12:51.188Z,73.30
2022-12-11T13:15:33.630Z,72.77
2022-12-11T13:18:05.106Z,72.73
2022-12-11T13:20:34.380Z,72.04
2022-12-11T13:23:16.909Z,72.24
2022-12-11T13:25:51.611Z,71.96
2022-12-11T13:28:27.352Z,72.10
2022-12-11T13:31:07.619Z,71.91
2022-12-11T13:33:41.960Z,72.05
2022-12-11T13:36:15.772Z,72.10
2022-12-11T13:38:51.992Z,72.23
2022-12-11T13:41:20.801Z,72.40
2022-12-11T13:43:49.843Z,72.42
2022-12-11T13:46:37.911Z,72.50
2022-12-11T13:49:08.610Z,72.68
2022-12-11T13:51:37.394Z,72.99
2022-12-11T13:54:17.914Z,73.22
2022-12-11T13:56:54.730Z,73.73
2022-12-11T13:59:36.881Z,74.15
2022-12-11T14:02:18.127Z,74.32
2022-12-11T14:04:50.089Z,74.94
2022-12-11T14:07:26.386Z,75.14
2022-12-11T14:10:00.565Z,75.17
2022-12-11T14:12:30.474Z,75.47
2022-12-11T14:15:02.046Z,75.38
2022-12-11T14:17:32.912Z,75.42
2022-12-11T14:20:05.762Z,75.12
2022-12-11T14:22:33.699Z,74.62
2022-12-11T14:25:14.771Z,74.52
2022-12-11T14:27:49.611Z,74.57
2022-12-11T14:30:22.162Z,74.53
2022-12-11T14:32:53.476Z,73.96
2022-12-11T14:35:28.610Z,72.43
2022-12-11T14:37:58.407Z,72.57
2022-12-11T14:40:34.649Z,72.62
2022-12-11T14:43:09.879Z,72.79
2022-12-11T14:45:41.657Z,72.63
2022-12-11T14:48:16.891Z,72.57
2022-12-11T14:50:50.391Z,72.53
2022-12-11T14:53:26.017Z,72.11
2022-12-11T14:55:55.658Z,72.40
2022-12-11T14:58:26.734Z,72.38
2022-12-11T15:01:21.333Z,72.53
2022-12-11T15:03:49.732Z,72.63
2022-12-11T15:06:36.264Z,72.43
2022-12-11T15:09:38.451Z,72.65
2022-12-11T15:12:16.040Z,72.67
2022-12-11T15:14:52.032Z,72.60
2022-12-11T15:17:21.754Z,72.71
2022-12-11T15:19:55.821Z,72.86
2022-12-11T15:22:29.402Z,72.99
2022-12-11T15:24:58.128Z,73.20
2022-12-11T15:27:37.693Z,73.30
2022-12-11T15:30:28.260Z,73.07
2022-12-11T15:33:19.062Z,72.99
2022-12-11T15:36:17.866Z,72.69
2022-12-11T15:38:47.397Z,72.53
2022-12-11T15:41:17.870Z,72.39
2022-12-11T15:43:45.616Z,72.19
2022-12-11T15:46:13.627Z,72.02
2022-12-11T15:48:41.460Z,72.06
2022-12-11T15:51:10.524Z,72.11
2022-12-11T15:53:38.295Z,71.84
2022-12-11T15:56:06.452Z,72.05
2022-12-11T15:58:35.582Z,71.78
2022-12-11T16:01:03.402Z,71.86
2022-12-11T16:03:31.388Z,71.72
2022-12-11T16:05:59.352Z,71.53
2022-12-11T16:08:27.366Z,71.46
2022-12-11T16:10:55.871Z,71.66
2022-12-11T16:13:23.628Z,71.78
2022-12-11T16:15:53.945Z,72.00
2022-12-11T16:18:23.223Z,71.89
2022-12-11T16:20:51.949Z,71.65
2022-12-11T16:23:20.362Z,71.85
2022-12-11T16:25:48.803Z,72.12
2022-12-11T16:28:20.849Z,72.06
2022-12-11T16:30:49.727Z,72.07
2022-12-11T16:33:17.940Z,71.95
2022-12-11T16:35:45.639Z,71.90
2022-12-11T16:38:13.979Z,72.13
2022-12-11T16:40:41.948Z,72.14
2022-12-11T16:43:10.885Z,72.22
2022-12-11T16:45:38.914Z,72.21
2022-12-11T16:48:06.782Z,72.31
2022-12-11T16:50:36.156Z,71.92
2022-12-11T16:53:04.201Z,71.85
2022-12-11T16:55:32.119Z,71.89
2022-12-11T16:57:59.801Z,72.13
2022-12-11T17:00:27.834Z,72.00
2022-12-11T17:02:56.087Z,72.09
2022-12-11T17:05:24.933Z,72.16
2022-12-11T17:07:52.918Z,72.33
2022-12-11T17:10:20.916Z,72.54
2022-12-11T17:12:48.820Z,72.60
2022-12-11T17:15:16.585Z,72.95
2022-12-11T17:17:44.471Z,73.18
2022-12-11T17:20:12.336Z,73.37
2022-12-11T17:22:40.570Z,73.50
2022-12-11T17:25:08.708Z,73.58
2022-12-11T17:27:36.735Z,73.77
2022-12-11T17:30:04.857Z,73.72
2022-12-11T17:32:32.697Z,73.76
2022-12-11T17:35:00.621Z,73.89
2022-12-11T17:37:28.330Z,73.94
2022-12-11T17:39:56.155Z,74.10
2022-12-11T17:42:24.214Z,74.37
2022-12-11T17:44:52.723Z,74.54
2022-12-11T17:47:20.802Z,74.83
2022-12-11T17:49:48.722Z,75.00
2022-12-11T17:52:16.620Z,75.12
2022-12-11T17:54:44.524Z,75.17
2022-12-11T17:57:12.222Z,75.59
2022-12-11T17:59:40.399Z,75.74
2022-12-11T18:02:10.516Z,75.80
2022-12-11T18:04:39.165Z,76.15
2022-12-11T18:07:07.088Z,76.42
2022-12-11T18:09:34.842Z,76.60
2022-12-11T18:12:02.640Z,76.74
2022-12-11T18:14:30.526Z,76.97
2022-12-11T18:16:58.448Z,77.27
2022-12-11T18:19:27.166Z,77.59
2022-12-11T18:21:55.322Z,77.56
2022-12-11T18:24:25.861Z,77.92
2022-12-11T18:26:53.619Z,78.18
2022-12-11T18:29:21.666Z,78.39
2022-12-11T18:31:49.647Z,78.35
2022-12-11T18:34:17.714Z,78.64
2022-12-11T18:36:47.191Z,78.83
2022-12-11T18:39:15.192Z,78.87
2022-12-11T18:41:43.158Z,79.18
2022-12-11T18:44:10.987Z,79.28
2022-12-11T18:46:39.428Z,79.63
2022-12-11T18:49:07.559Z,79.47
2022-12-11T18:51:36.529Z,79.73
2022-12-11T18:54:04.562Z,79.99
2022-12-11T18:56:32.634Z,80.10
2022-12-11T18:59:00.569Z,80.20
2022-12-11T19:01:30.124Z,80.28
2022-12-11T19:04:03.586Z,80.37
2022-12-11T19:06:35.813Z,80.89
2022-12-11T19:09:05.863Z,80.59
2022-12-11T19:11:35.239Z,80.92
2022-12-11T19:14:04.774Z,81.12
2022-12-11T19:16:35.650Z,81.41
2022-12-11T19:19:19.596Z,81.48
2022-12-11T19:21:48.117Z,81.29
2022-12-11T19:24:21.279Z,81.23
2022-12-11T19:26:49.332Z,81.33
2022-12-11T19:29:23.129Z,81.59
2022-12-11T19:31:51.623Z,81.87
2022-12-11T19:34:19.725Z,81.90
2022-12-11T19:36:47.692Z,81.83
2022-12-11T19:39:15.651Z,81.87
2022-12-11T19:41:43.843Z,81.65
2022-12-11T19:44:12.196Z,81.92
2022-12-11T19:46:40.005Z,81.84
2022-12-11T19:49:08.035Z,81.89
2022-12-11T19:51:41.129Z,82.02
2022-12-11T19:54:12.875Z,82.10
2022-12-11T19:56:40.676Z,82.02
2022-12-11T19:59:11.912Z,81.96
2022-12-11T20:01:40.202Z,81.97
2022-12-11T20:04:10.601Z,82.01
2022-12-11T20:06:42.986Z,82.02
2022-12-11T20:09:12.555Z,81.99
2022-12-11T20:11:42.607Z,82.02
2022-12-11T20:14:19.635Z,82.17
2022-12-11T20:17:10.113Z,82.13
2022-12-11T20:19:35.548Z,82.21
2022-12-11T20:22:03.854Z,82.51
2022-12-11T20:24:31.683Z,82.59
2022-12-11T20:27:00.385Z,82.49
2022-12-11T20:29:29.163Z,82.50
2022-12-11T20:31:59.557Z,82.53
2022-12-11T20:34:27.822Z,82.43
2022-12-11T20:36:56.342Z,82.25
2022-12-11T20:39:24.405Z,82.22
2022-12-11T20:41:52.440Z,82.10
2022-12-11T20:44:20.452Z,82.11
2022-12-11T20:46:48.221Z,82.17
2022-12-11T20:49:16.466Z,82.24
2022-12-11T20:51:44.383Z,82.07
2022-12-11T20:54:13.212Z,82.22
2022-12-11T20:56:41.226Z,82.20
2022-12-11T20:59:10.820Z,82.35
2022-12-11T21:01:40.226Z,82.18
2022-12-11T21:04:08.535Z,82.16
2022-12-11T21:06:38.796Z,82.07
2022-12-11T21:09:10.997Z,81.98
2022-12-11T21:11:39.862Z,82.32
2022-12-11T21:14:07.605Z,82.36
2022-12-11T21:16:36.952Z,82.18
2022-12-11T21:19:06.475Z,82.11
2022-12-11T21:21:36.881Z,82.16
2022-12-11T21:24:06.379Z,82.25
2022-12-11T21:26:34.674Z,82.04
2022-12-11T21:29:02.376Z,82.00
2022-12-11T21:31:31.723Z,82.17
2022-12-11T21:34:00.165Z,82.33
2022-12-11T21:36:27.975Z,82.39
2022-12-11T21:38:55.841Z,82.46
2022-12-11T21:41:24.338Z,82.47
2022-12-11T21:46:43.485Z,82.74
2022-12-11T21:49:12.045Z,82.78
2022-12-11T21:51:46.831Z,82.87
2022-12-11T21:54:17.245Z,83.03
2022-12-11T21:56:45.710Z,82.84
2022-12-11T21:59:13.485Z,82.97
2022-12-11T22:01:46.176Z,83.07
2022-12-11T22:04:15.027Z,83.10
2022-12-11T22:06:43.646Z,83.25
2022-12-11T22:09:12.967Z,83.40
2022-12-11T22:11:42.058Z,83.39
2022-12-11T22:14:16.862Z,83.42
2022-12-11T22:16:45.755Z,83.73
2022-12-11T22:19:13.576Z,83.69
2022-12-11T22:21:41.621Z,83.79
2022-12-11T22:24:09.703Z,83.85
2022-12-11T22:26:37.527Z,83.95
2022-12-11T22:29:05.356Z,83.91
2022-12-11T22:31:33.507Z,84.15
2022-12-11T22:34:01.235Z,84.14
2022-12-11T22:36:29.097Z,84.20
2022-12-11T22:38:56.912Z,84.22
2022-12-11T22:41:31.561Z,84.20
2022-12-11T22:43:59.842Z,84.43
2022-12-11T22:46:29.893Z,84.35
2022-12-11T22:48:59.094Z,84.36
2022-12-11T22:51:27.297Z,84.43
2022-12-11T22:53:55.051Z,84.43
2022-12-11T22:56:22.933Z,84.50
2022-12-11T22:58:51.216Z,84.35
2022-12-11T23:01:22.742Z,84.55
2022-12-11T23:03:51.086Z,84.55
2022-12-11T23:06:21.815Z,84.45
2022-12-11T23:08:49.959Z,84.48
2022-12-11T23:11:30.312Z,84.63
2022-12-11T23:13:58.460Z,84.65
2022-12-11T23:16:27.601Z,84.79
2022-12-11T23:18:56.872Z,84.89
2022-12-11T23:21:27.166Z,84.61
2022-12-11T23:23:56.593Z,84.81
2022-12-11T23:26:27.244Z,84.78
2022-12-11T23:28:57.621Z,84.96
2022-12-11T23:31:26.308Z,84.90
2022-12-11T23:33:54.311Z,84.93
2022-12-11T23:36:22.668Z,85.07
2022-12-11T23:38:54.557Z,84.97
2022-12-11T23:41:23.741Z,85.19
2022-12-11T23:43:52.039Z,85.28
2022-12-11T23:46:23.525Z,84.97
2022-12-11T23:48:53.400Z,85.03
2022-12-11T23:51:24.190Z,84.88
2022-12-11T23:53:52.452Z,85.04
2022-12-11T23:56:26.631Z,85.31
2022-12-11T23:58:55.582Z,85.07
